sensor_id;sensor_type;location;lat;lon;timestamp;P1;durP1;ratioP1;P2;durP2;ratioP2
43678;SDS011;29279;50.858;4.392;2024-01-27T00:01:49;24.73;;;5.82;;
43678;SDS011;29279;50.858;4.392;2024-01-27T00:04:15;25.05;;;6.90;;
43678;SDS011;29279;50.858;4.392;2024-01-27T00:06:41;19.45;;;5.95;;
43678;SDS011;29279;50.858;4.392;2024-01-27T00:09:08;25.90;;;5.97;;
43678;SDS011;29279;50.858;4.392;2024-01-27T00:11:34;28.67;;;6.50;;
43678;SDS011;29279;50.858;4.392;2024-01-27T00:14:00;31.48;;;6.03;;
43678;SDS011;29279;50.858;4.392;2024-01-27T00:16:26;24.45;;;5.75;;
43678;SDS011;29279;50.858;4.392;2024-01-27T00:18:52;21.95;;;5.13;;
43678;SDS011;29279;50.858;4.392;2024-01-27T00:21:20;24.80;;;6.28;;
43678;SDS011;29279;50.858;4.392;2024-01-27T00:23:46;18.38;;;5.72;;
43678;SDS011;29279;50.858;4.392;2024-01-27T00:26:11;24.23;;;5.82;;
43678;SDS011;29279;50.858;4.392;2024-01-27T00:28:39;26.63;;;6.40;;
43678;SDS011;29279;50.858;4.392;2024-01-27T00:31:07;29.80;;;6.15;;
43678;SDS011;29279;50.858;4.392;2024-01-27T00:33:34;27.52;;;6.65;;
43678;SDS011;29279;50.858;4.392;2024-01-27T00:36:01;25.73;;;5.95;;
43678;SDS011;29279;50.858;4.392;2024-01-27T00:38:27;24.15;;;6.15;;
43678;SDS011;29279;50.858;4.392;2024-01-27T00:40:53;27.08;;;6.95;;
43678;SDS011;29279;50.858;4.392;2024-01-27T00:43:18;33.72;;;6.97;;
43678;SDS011;29279;50.858;4.392;2024-01-27T00:45:44;28.30;;;6.40;;
43678;SDS011;29279;50.858;4.392;2024-01-27T00:48:09;20.45;;;5.72;;
43678;SDS011;29279;50.858;4.392;2024-01-27T00:50:35;28.23;;;6.55;;
43678;SDS011;29279;50.858;4.392;2024-01-27T00:53:01;27.42;;;5.90;;
43678;SDS011;29279;50.858;4.392;2024-01-27T00:55:27;33.05;;;7.18;;
43678;SDS011;29279;50.858;4.392;2024-01-27T00:57:52;30.15;;;6.80;;
43678;SDS011;29279;50.858;4.392;2024-01-27T01:00:19;27.13;;;6.60;;
43678;SDS011;29279;50.858;4.392;2024-01-27T01:02:44;34.72;;;7.45;;
43678;SDS011;29279;50.858;4.392;2024-01-27T01:05:12;26.05;;;8.30;;
43678;SDS011;29279;50.858;4.392;2024-01-27T01:07:38;24.00;;;6.45;;
43678;SDS011;29279;50.858;4.392;2024-01-27T01:10:08;23.77;;;6.50;;
43678;SDS011;29279;50.858;4.392;2024-01-27T01:12:34;26.35;;;7.53;;
43678;SDS011;29279;50.858;4.392;2024-01-27T01:15:01;26.90;;;6.82;;
43678;SDS011;29279;50.858;4.392;2024-01-27T01:17:27;24.13;;;6.07;;
43678;SDS011;29279;50.858;4.392;2024-01-27T01:19:53;25.70;;;6.70;;
43678;SDS011;29279;50.858;4.392;2024-01-27T01:22:18;23.55;;;6.38;;
43678;SDS011;29279;50.858;4.392;2024-01-27T01:24:44;33.25;;;6.68;;
43678;SDS011;29279;50.858;4.392;2024-01-27T01:27:10;34.03;;;8.60;;
43678;SDS011;29279;50.858;4.392;2024-01-27T01:29:35;32.20;;;7.00;;
43678;SDS011;29279;50.858;4.392;2024-01-27T01:32:01;25.15;;;6.45;;
43678;SDS011;29279;50.858;4.392;2024-01-27T01:34:28;32.53;;;7.55;;
43678;SDS011;29279;50.858;4.392;2024-01-27T01:36:53;40.45;;;7.80;;
43678;SDS011;29279;50.858;4.392;2024-01-27T01:39:19;33.25;;;7.60;;
43678;SDS011;29279;50.858;4.392;2024-01-27T01:41:45;21.33;;;6.63;;
43678;SDS011;29279;50.858;4.392;2024-01-27T01:44:10;21.83;;;6.75;;
43678;SDS011;29279;50.858;4.392;2024-01-27T01:46:36;33.78;;;6.75;;
43678;SDS011;29279;50.858;4.392;2024-01-27T01:49:02;36.17;;;7.20;;
43678;SDS011;29279;50.858;4.392;2024-01-27T01:51:28;22.65;;;6.35;;
43678;SDS011;29279;50.858;4.392;2024-01-27T01:53:54;25.27;;;6.25;;
43678;SDS011;29279;50.858;4.392;2024-01-27T01:56:23;25.27;;;6.82;;
43678;SDS011;29279;50.858;4.392;2024-01-27T01:58:49;28.20;;;7.00;;
43678;SDS011;29279;50.858;4.392;2024-01-27T02:01:17;29.10;;;7.55;;
43678;SDS011;29279;50.858;4.392;2024-01-27T02:03:55;26.90;;;6.88;;
43678;SDS011;29279;50.858;4.392;2024-01-27T02:06:22;26.10;;;7.05;;
43678;SDS011;29279;50.858;4.392;2024-01-27T02:08:48;23.88;;;6.95;;
43678;SDS011;29279;50.858;4.392;2024-01-27T02:11:13;23.55;;;6.90;;
43678;SDS011;29279;50.858;4.392;2024-01-27T02:13:39;29.90;;;7.82;;
43678;SDS011;29279;50.858;4.392;2024-01-27T02:16:05;36.17;;;7.68;;
43678;SDS011;29279;50.858;4.392;2024-01-27T02:18:31;27.40;;;6.88;;
43678;SDS011;29279;50.858;4.392;2024-01-27T02:20:56;28.45;;;6.50;;
43678;SDS011;29279;50.858;4.392;2024-01-27T02:23:22;28.13;;;6.55;;
43678;SDS011;29279;50.858;4.392;2024-01-27T02:25:47;25.50;;;5.90;;
43678;SDS011;29279;50.858;4.392;2024-01-27T02:28:15;30.63;;;7.18;;
43678;SDS011;29279;50.858;4.392;2024-01-27T02:30:40;29.45;;;7.10;;
43678;SDS011;29279;50.858;4.392;2024-01-27T02:33:06;22.55;;;6.20;;
43678;SDS011;29279;50.858;4.392;2024-01-27T02:35:32;33.38;;;6.68;;
43678;SDS011;29279;50.858;4.392;2024-01-27T02:37:57;26.35;;;6.75;;
43678;SDS011;29279;50.858;4.392;2024-01-27T02:40:23;30.73;;;7.70;;
43678;SDS011;29279;50.858;4.392;2024-01-27T02:42:49;29.25;;;7.28;;
43678;SDS011;29279;50.858;4.392;2024-01-27T02:45:14;34.03;;;7.07;;
43678;SDS011;29279;50.858;4.392;2024-01-27T02:47:40;34.17;;;6.85;;
43678;SDS011;29279;50.858;4.392;2024-01-27T02:50:06;30.77;;;7.65;;
43678;SDS011;29279;50.858;4.392;2024-01-27T02:52:32;27.77;;;7.55;;
43678;SDS011;29279;50.858;4.392;2024-01-27T02:54:58;39.40;;;8.55;;
43678;SDS011;29279;50.858;4.392;2024-01-27T02:57:24;36.33;;;7.47;;
43678;SDS011;29279;50.858;4.392;2024-01-27T02:59:49;31.40;;;7.63;;
43678;SDS011;29279;50.858;4.392;2024-01-27T03:02:15;34.80;;;7.22;;
43678;SDS011;29279;50.858;4.392;2024-01-27T03:04:41;39.53;;;8.05;;
43678;SDS011;29279;50.858;4.392;2024-01-27T03:07:07;31.52;;;7.47;;
43678;SDS011;29279;50.858;4.392;2024-01-27T03:09:33;31.02;;;6.65;;
43678;SDS011;29279;50.858;4.392;2024-01-27T03:11:58;32.47;;;8.13;;
43678;SDS011;29279;50.858;4.392;2024-01-27T03:14:24;24.42;;;6.57;;
43678;SDS011;29279;50.858;4.392;2024-01-27T03:16:50;31.75;;;7.38;;
43678;SDS011;29279;50.858;4.392;2024-01-27T03:19:16;28.95;;;6.47;;
43678;SDS011;29279;50.858;4.392;2024-01-27T03:21:42;33.60;;;7.38;;
43678;SDS011;29279;50.858;4.392;2024-01-27T03:24:07;24.20;;;6.22;;
43678;SDS011;29279;50.858;4.392;2024-01-27T03:26:33;22.77;;;6.55;;
43678;SDS011;29279;50.858;4.392;2024-01-27T03:28:59;27.50;;;6.80;;
43678;SDS011;29279;50.858;4.392;2024-01-27T03:31:31;24.00;;;6.70;;
43678;SDS011;29279;50.858;4.392;2024-01-27T03:33:58;29.10;;;6.95;;
43678;SDS011;29279;50.858;4.392;2024-01-27T03:36:24;22.88;;;6.63;;
43678;SDS011;29279;50.858;4.392;2024-01-27T03:38:50;30.88;;;7.32;;
43678;SDS011;29279;50.858;4.392;2024-01-27T03:41:16;31.40;;;7.63;;
43678;SDS011;29279;50.858;4.392;2024-01-27T03:43:41;26.27;;;6.85;;
43678;SDS011;29279;50.858;4.392;2024-01-27T03:46:07;24.52;;;6.05;;
43678;SDS011;29279;50.858;4.392;2024-01-27T03:48:32;23.75;;;7.05;;
43678;SDS011;29279;50.858;4.392;2024-01-27T03:51:00;36.15;;;6.82;;
43678;SDS011;29279;50.858;4.392;2024-01-27T03:53:26;23.70;;;6.90;;
43678;SDS011;29279;50.858;4.392;2024-01-27T03:55:52;25.38;;;7.03;;
43678;SDS011;29279;50.858;4.392;2024-01-27T03:58:18;46.75;;;8.38;;
43678;SDS011;29279;50.858;4.392;2024-01-27T04:00:44;25.67;;;6.80;;
43678;SDS011;29279;50.858;4.392;2024-01-27T04:03:09;26.13;;;6.13;;
43678;SDS011;29279;50.858;4.392;2024-01-27T04:05:35;28.27;;;6.30;;
43678;SDS011;29279;50.858;4.392;2024-01-27T04:08:01;33.25;;;7.68;;
43678;SDS011;29279;50.858;4.392;2024-01-27T04:10:27;30.38;;;6.22;;
43678;SDS011;29279;50.858;4.392;2024-01-27T04:12:53;29.70;;;7.53;;
43678;SDS011;29279;50.858;4.392;2024-01-27T04:15:19;35.15;;;6.22;;
43678;SDS011;29279;50.858;4.392;2024-01-27T04:17:45;33.72;;;7.47;;
43678;SDS011;29279;50.858;4.392;2024-01-27T04:20:10;34.05;;;7.28;;
43678;SDS011;29279;50.858;4.392;2024-01-27T04:22:36;25.92;;;6.28;;
43678;SDS011;29279;50.858;4.392;2024-01-27T04:25:02;39.22;;;6.80;;
43678;SDS011;29279;50.858;4.392;2024-01-27T04:27:28;25.85;;;6.63;;
43678;SDS011;29279;50.858;4.392;2024-01-27T04:29:55;40.45;;;6.45;;
43678;SDS011;29279;50.858;4.392;2024-01-27T04:32:21;33.10;;;7.10;;
43678;SDS011;29279;50.858;4.392;2024-01-27T04:34:48;31.02;;;6.75;;
43678;SDS011;29279;50.858;4.392;2024-01-27T04:37:14;30.25;;;6.70;;
43678;SDS011;29279;50.858;4.392;2024-01-27T04:39:40;28.95;;;6.70;;
43678;SDS011;29279;50.858;4.392;2024-01-27T04:42:05;26.42;;;6.25;;
43678;SDS011;29279;50.858;4.392;2024-01-27T04:44:31;27.83;;;7.00;;
43678;SDS011;29279;50.858;4.392;2024-01-27T04:46:57;24.27;;;7.00;;
43678;SDS011;29279;50.858;4.392;2024-01-27T04:49:23;30.75;;;7.20;;
43678;SDS011;29279;50.858;4.392;2024-01-27T04:51:50;26.00;;;6.30;;
43678;SDS011;29279;50.858;4.392;2024-01-27T04:54:16;41.50;;;9.23;;
43678;SDS011;29279;50.858;4.392;2024-01-27T04:56:42;38.95;;;7.65;;
43678;SDS011;29279;50.858;4.392;2024-01-27T04:59:07;36.05;;;7.22;;
43678;SDS011;29279;50.858;4.392;2024-01-27T05:01:33;26.60;;;6.45;;
43678;SDS011;29279;50.858;4.392;2024-01-27T05:03:59;31.95;;;7.05;;
43678;SDS011;29279;50.858;4.392;2024-01-27T05:06:24;27.40;;;7.13;;
43678;SDS011;29279;50.858;4.392;2024-01-27T05:08:50;31.35;;;7.40;;
43678;SDS011;29279;50.858;4.392;2024-01-27T05:11:24;26.45;;;6.20;;
43678;SDS011;29279;50.858;4.392;2024-01-27T05:13:51;31.10;;;7.13;;
43678;SDS011;29279;50.858;4.392;2024-01-27T05:16:17;32.60;;;6.20;;
43678;SDS011;29279;50.858;4.392;2024-01-27T05:18:42;38.88;;;7.45;;
43678;SDS011;29279;50.858;4.392;2024-01-27T05:21:08;23.83;;;6.88;;
43678;SDS011;29279;50.858;4.392;2024-01-27T05:23:34;35.08;;;7.00;;
43678;SDS011;29279;50.858;4.392;2024-01-27T05:25:59;43.63;;;7.05;;
43678;SDS011;29279;50.858;4.392;2024-01-27T05:28:25;36.63;;;6.03;;
43678;SDS011;29279;50.858;4.392;2024-01-27T05:30:51;32.55;;;6.07;;
43678;SDS011;29279;50.858;4.392;2024-01-27T05:33:16;47.45;;;7.25;;
43678;SDS011;29279;50.858;4.392;2024-01-27T05:35:42;28.70;;;6.22;;
43678;SDS011;29279;50.858;4.392;2024-01-27T05:38:08;28.67;;;5.97;;
43678;SDS011;29279;50.858;4.392;2024-01-27T05:40:34;30.77;;;6.07;;
43678;SDS011;29279;50.858;4.392;2024-01-27T05:42:59;33.33;;;6.55;;
43678;SDS011;29279;50.858;4.392;2024-01-27T05:45:25;42.55;;;6.65;;
43678;SDS011;29279;50.858;4.392;2024-01-27T05:47:51;30.23;;;6.68;;
43678;SDS011;29279;50.858;4.392;2024-01-27T05:50:17;43.60;;;6.90;;
43678;SDS011;29279;50.858;4.392;2024-01-27T05:52:43;35.47;;;7.07;;
43678;SDS011;29279;50.858;4.392;2024-01-27T05:55:09;30.67;;;6.85;;
43678;SDS011;29279;50.858;4.392;2024-01-27T05:57:36;23.02;;;7.05;;
43678;SDS011;29279;50.858;4.392;2024-01-27T06:00:02;30.45;;;7.75;;
43678;SDS011;29279;50.858;4.392;2024-01-27T06:02:28;25.67;;;6.68;;
43678;SDS011;29279;50.858;4.392;2024-01-27T06:04:54;31.05;;;6.20;;
43678;SDS011;29279;50.858;4.392;2024-01-27T06:07:19;22.75;;;5.80;;
43678;SDS011;29279;50.858;4.392;2024-01-27T06:09:45;28.13;;;7.25;;
43678;SDS011;29279;50.858;4.392;2024-01-27T06:12:11;51.65;;;8.10;;
43678;SDS011;29279;50.858;4.392;2024-01-27T06:14:36;38.53;;;7.20;;
43678;SDS011;29279;50.858;4.392;2024-01-27T06:17:04;30.80;;;6.85;;
43678;SDS011;29279;50.858;4.392;2024-01-27T06:19:30;32.38;;;6.25;;
43678;SDS011;29279;50.858;4.392;2024-01-27T06:21:56;49.88;;;7.70;;
43678;SDS011;29279;50.858;4.392;2024-01-27T06:24:22;28.60;;;6.30;;
43678;SDS011;29279;50.858;4.392;2024-01-27T06:26:47;30.92;;;6.53;;
43678;SDS011;29279;50.858;4.392;2024-01-27T06:29:13;25.40;;;6.68;;
43678;SDS011;29279;50.858;4.392;2024-01-27T06:31:39;35.10;;;6.43;;
43678;SDS011;29279;50.858;4.392;2024-01-27T06:34:05;31.85;;;7.15;;
43678;SDS011;29279;50.858;4.392;2024-01-27T06:36:31;26.35;;;5.78;;
43678;SDS011;29279;50.858;4.392;2024-01-27T06:38:57;30.15;;;6.13;;
43678;SDS011;29279;50.858;4.392;2024-01-27T06:41:23;35.00;;;6.35;;
43678;SDS011;29279;50.858;4.392;2024-01-27T06:43:48;37.38;;;6.47;;
43678;SDS011;29279;50.858;4.392;2024-01-27T06:46:16;33.55;;;6.18;;
43678;SDS011;29279;50.858;4.392;2024-01-27T06:48:41;35.85;;;6.82;;
43678;SDS011;29279;50.858;4.392;2024-01-27T06:51:07;31.88;;;6.18;;
43678;SDS011;29279;50.858;4.392;2024-01-27T06:53:32;27.75;;;6.13;;
43678;SDS011;29279;50.858;4.392;2024-01-27T06:55:58;27.15;;;6.18;;
43678;SDS011;29279;50.858;4.392;2024-01-27T06:58:24;31.15;;;6.20;;
43678;SDS011;29279;50.858;4.392;2024-01-27T07:00:49;23.55;;;5.32;;
43678;SDS011;29279;50.858;4.392;2024-01-27T07:03:15;30.02;;;6.13;;
43678;SDS011;29279;50.858;4.392;2024-01-27T07:05:41;41.70;;;6.95;;
43678;SDS011;29279;50.858;4.392;2024-01-27T07:08:07;24.52;;;5.60;;
43678;SDS011;29279;50.858;4.392;2024-01-27T07:10:33;37.97;;;5.80;;
43678;SDS011;29279;50.858;4.392;2024-01-27T07:12:59;37.22;;;5.90;;
43678;SDS011;29279;50.858;4.392;2024-01-27T07:15:28;35.20;;;6.28;;
43678;SDS011;29279;50.858;4.392;2024-01-27T07:17:54;33.95;;;6.43;;
43678;SDS011;29279;50.858;4.392;2024-01-27T07:20:20;35.33;;;6.78;;
43678;SDS011;29279;50.858;4.392;2024-01-27T07:22:49;43.13;;;6.18;;
43678;SDS011;29279;50.858;4.392;2024-01-27T07:25:15;24.10;;;5.28;;
43678;SDS011;29279;50.858;4.392;2024-01-27T07:27:41;48.50;;;7.55;;
43678;SDS011;29279;50.858;4.392;2024-01-27T07:30:06;35.85;;;6.13;;
43678;SDS011;29279;50.858;4.392;2024-01-27T07:32:34;34.35;;;5.70;;
43678;SDS011;29279;50.858;4.392;2024-01-27T07:35:00;25.55;;;6.45;;
43678;SDS011;29279;50.858;4.392;2024-01-27T07:37:26;36.42;;;6.07;;
43678;SDS011;29279;50.858;4.392;2024-01-27T07:39:52;28.70;;;5.95;;
43678;SDS011;29279;50.858;4.392;2024-01-27T07:42:18;31.75;;;5.47;;
43678;SDS011;29279;50.858;4.392;2024-01-27T07:44:43;23.25;;;6.40;;
43678;SDS011;29279;50.858;4.392;2024-01-27T07:47:09;25.13;;;6.15;;
43678;SDS011;29279;50.858;4.392;2024-01-27T07:49:35;30.08;;;5.32;;
43678;SDS011;29279;50.858;4.392;2024-01-27T07:52:00;31.25;;;5.93;;
43678;SDS011;29279;50.858;4.392;2024-01-27T07:54:26;24.15;;;6.13;;
43678;SDS011;29279;50.858;4.392;2024-01-27T07:56:51;24.33;;;5.97;;
43678;SDS011;29279;50.858;4.392;2024-01-27T07:59:17;31.63;;;6.97;;
43678;SDS011;29279;50.858;4.392;2024-01-27T08:01:43;29.70;;;7.75;;
43678;SDS011;29279;50.858;4.392;2024-01-27T08:04:09;35.40;;;6.80;;
43678;SDS011;29279;50.858;4.392;2024-01-27T08:06:45;32.58;;;6.35;;
43678;SDS011;29279;50.858;4.392;2024-01-27T08:09:14;20.55;;;5.32;;
43678;SDS011;29279;50.858;4.392;2024-01-27T08:11:41;28.35;;;5.72;;
43678;SDS011;29279;50.858;4.392;2024-01-27T08:14:07;29.05;;;5.93;;
43678;SDS011;29279;50.858;4.392;2024-01-27T08:16:33;24.20;;;4.85;;
43678;SDS011;29279;50.858;4.392;2024-01-27T08:18:58;36.25;;;7.32;;
43678;SDS011;29279;50.858;4.392;2024-01-27T08:21:24;30.45;;;5.82;;
43678;SDS011;29279;50.858;4.392;2024-01-27T08:23:50;24.25;;;5.47;;
43678;SDS011;29279;50.858;4.392;2024-01-27T08:26:15;27.17;;;5.40;;
43678;SDS011;29279;50.858;4.392;2024-01-27T08:28:41;32.25;;;6.40;;
43678;SDS011;29279;50.858;4.392;2024-01-27T08:31:07;29.58;;;6.65;;
43678;SDS011;29279;50.858;4.392;2024-01-27T08:33:33;36.85;;;6.70;;
43678;SDS011;29279;50.858;4.392;2024-01-27T08:35:59;34.10;;;6.72;;
43678;SDS011;29279;50.858;4.392;2024-01-27T08:38:24;33.40;;;7.80;;
43678;SDS011;29279;50.858;4.392;2024-01-27T08:40:50;46.55;;;12.18;;
43678;SDS011;29279;50.858;4.392;2024-01-27T08:43:16;43.83;;;11.02;;
43678;SDS011;29279;50.858;4.392;2024-01-27T08:45:41;45.80;;;13.77;;
43678;SDS011;29279;50.858;4.392;2024-01-27T08:48:07;37.95;;;11.40;;
43678;SDS011;29279;50.858;4.392;2024-01-27T08:50:34;38.92;;;10.40;;
43678;SDS011;29279;50.858;4.392;2024-01-27T08:53:00;34.25;;;9.15;;
43678;SDS011;29279;50.858;4.392;2024-01-27T08:55:26;29.92;;;8.45;;
43678;SDS011;29279;50.858;4.392;2024-01-27T08:57:52;31.13;;;8.48;;
43678;SDS011;29279;50.858;4.392;2024-01-27T09:00:17;32.65;;;6.43;;
43678;SDS011;29279;50.858;4.392;2024-01-27T09:02:43;29.60;;;6.82;;
43678;SDS011;29279;50.858;4.392;2024-01-27T09:05:10;26.83;;;7.05;;
43678;SDS011;29279;50.858;4.392;2024-01-27T09:07:35;30.40;;;7.65;;
43678;SDS011;29279;50.858;4.392;2024-01-27T09:10:01;36.40;;;8.65;;
43678;SDS011;29279;50.858;4.392;2024-01-27T09:12:28;28.38;;;7.90;;
43678;SDS011;29279;50.858;4.392;2024-01-27T09:14:53;31.20;;;9.43;;
43678;SDS011;29279;50.858;4.392;2024-01-27T09:17:19;32.28;;;7.88;;
43678;SDS011;29279;50.858;4.392;2024-01-27T09:19:45;32.25;;;8.60;;
43678;SDS011;29279;50.858;4.392;2024-01-27T09:22:13;27.08;;;7.30;;
43678;SDS011;29279;50.858;4.392;2024-01-27T09:24:39;32.13;;;8.25;;
43678;SDS011;29279;50.858;4.392;2024-01-27T09:27:05;30.02;;;8.43;;
43678;SDS011;29279;50.858;4.392;2024-01-27T09:29:31;24.42;;;7.40;;
43678;SDS011;29279;50.858;4.392;2024-01-27T09:31:57;23.27;;;7.78;;
43678;SDS011;29279;50.858;4.392;2024-01-27T09:34:23;23.48;;;7.57;;
43678;SDS011;29279;50.858;4.392;2024-01-27T09:36:49;26.85;;;7.53;;
43678;SDS011;29279;50.858;4.392;2024-01-27T09:39:14;29.00;;;8.13;;
43678;SDS011;29279;50.858;4.392;2024-01-27T09:41:40;26.63;;;9.00;;
43678;SDS011;29279;50.858;4.392;2024-01-27T09:44:07;25.85;;;7.85;;
43678;SDS011;29279;50.858;4.392;2024-01-27T09:46:32;31.25;;;9.30;;
43678;SDS011;29279;50.858;4.392;2024-01-27T09:48:58;28.65;;;8.15;;
43678;SDS011;29279;50.858;4.392;2024-01-27T09:51:24;29.42;;;8.13;;
43678;SDS011;29279;50.858;4.392;2024-01-27T09:53:51;34.08;;;9.30;;
43678;SDS011;29279;50.858;4.392;2024-01-27T09:56:18;26.98;;;8.52;;
43678;SDS011;29279;50.858;4.392;2024-01-27T09:58:45;23.83;;;8.68;;
43678;SDS011;29279;50.858;4.392;2024-01-27T10:01:12;35.15;;;8.80;;
43678;SDS011;29279;50.858;4.392;2024-01-27T10:03:40;28.00;;;8.45;;
43678;SDS011;29279;50.858;4.392;2024-01-27T10:06:09;31.23;;;8.32;;
43678;SDS011;29279;50.858;4.392;2024-01-27T10:08:36;27.77;;;8.10;;
43678;SDS011;29279;50.858;4.392;2024-01-27T10:11:08;31.25;;;8.75;;
43678;SDS011;29279;50.858;4.392;2024-01-27T10:13:35;22.42;;;7.68;;
43678;SDS011;29279;50.858;4.392;2024-01-27T10:16:08;34.10;;;8.95;;
43678;SDS011;29279;50.858;4.392;2024-01-27T10:18:35;24.15;;;8.52;;
43678;SDS011;29279;50.858;4.392;2024-01-27T10:21:12;26.27;;;8.40;;
43678;SDS011;29279;50.858;4.392;2024-01-27T10:23:39;23.98;;;7.57;;
43678;SDS011;29279;50.858;4.392;2024-01-27T10:26:05;24.70;;;8.85;;
43678;SDS011;29279;50.858;4.392;2024-01-27T10:28:33;35.42;;;10.68;;
43678;SDS011;29279;50.858;4.392;2024-01-27T10:31:11;34.85;;;11.65;;
43678;SDS011;29279;50.858;4.392;2024-01-27T10:33:50;31.02;;;9.23;;
43678;SDS011;29279;50.858;4.392;2024-01-27T10:36:17;21.88;;;7.70;;
43678;SDS011;29279;50.858;4.392;2024-01-27T10:38:43;33.20;;;7.32;;
43678;SDS011;29279;50.858;4.392;2024-01-27T10:41:09;18.45;;;5.40;;
43678;SDS011;29279;50.858;4.392;2024-01-27T10:43:38;22.70;;;5.22;;
43678;SDS011;29279;50.858;4.392;2024-01-27T10:46:05;24.58;;;6.28;;
43678;SDS011;29279;50.858;4.392;2024-01-27T10:48:35;14.85;;;4.90;;
43678;SDS011;29279;50.858;4.392;2024-01-27T10:51:08;27.05;;;4.65;;
43678;SDS011;29279;50.858;4.392;2024-01-27T10:53:35;19.73;;;5.47;;
43678;SDS011;29279;50.858;4.392;2024-01-27T10:56:03;23.70;;;6.15;;
43678;SDS011;29279;50.858;4.392;2024-01-27T10:58:34;21.92;;;6.13;;
43678;SDS011;29279;50.858;4.392;2024-01-27T11:01:07;16.02;;;5.60;;
43678;SDS011;29279;50.858;4.392;2024-01-27T11:03:38;23.58;;;6.00;;
43678;SDS011;29279;50.858;4.392;2024-01-27T11:06:07;19.30;;;5.22;;
43678;SDS011;29279;50.858;4.392;2024-01-27T11:08:33;20.85;;;5.55;;
43678;SDS011;29279;50.858;4.392;2024-01-27T11:11:00;18.27;;;5.82;;
43678;SDS011;29279;50.858;4.392;2024-01-27T11:13:30;16.00;;;4.95;;
43678;SDS011;29279;50.858;4.392;2024-01-27T11:15:58;22.80;;;6.05;;
43678;SDS011;29279;50.858;4.392;2024-01-27T11:18:26;19.00;;;5.05;;
43678;SDS011;29279;50.858;4.392;2024-01-27T11:20:55;17.02;;;4.65;;
43678;SDS011;29279;50.858;4.392;2024-01-27T11:23:33;14.77;;;4.25;;
43678;SDS011;29279;50.858;4.392;2024-01-27T11:26:06;16.52;;;4.18;;
43678;SDS011;29279;50.858;4.392;2024-01-27T11:28:33;14.90;;;4.05;;
43678;SDS011;29279;50.858;4.392;2024-01-27T11:31:02;13.05;;;4.03;;
43678;SDS011;29279;50.858;4.392;2024-01-27T11:33:29;13.57;;;3.97;;
43678;SDS011;29279;50.858;4.392;2024-01-27T11:36:01;12.68;;;3.47;;
43678;SDS011;29279;50.858;4.392;2024-01-27T11:38:30;19.27;;;4.05;;
43678;SDS011;29279;50.858;4.392;2024-01-27T11:40:57;16.33;;;3.75;;
43678;SDS011;29279;50.858;4.392;2024-01-27T11:43:24;16.52;;;3.83;;
43678;SDS011;29279;50.858;4.392;2024-01-27T11:46:09;10.40;;;3.67;;
43678;SDS011;29279;50.858;4.392;2024-01-27T11:48:41;19.48;;;4.32;;
43678;SDS011;29279;50.858;4.392;2024-01-27T11:51:10;14.73;;;3.92;;
43678;SDS011;29279;50.858;4.392;2024-01-27T11:53:36;13.55;;;3.40;;
43678;SDS011;29279;50.858;4.392;2024-01-27T11:56:03;11.50;;;3.72;;
43678;SDS011;29279;50.858;4.392;2024-01-27T11:58:29;23.08;;;4.78;;
43678;SDS011;29279;50.858;4.392;2024-01-27T12:00:58;21.25;;;4.22;;
43678;SDS011;29279;50.858;4.392;2024-01-27T12:03:24;16.80;;;4.00;;
43678;SDS011;29279;50.858;4.392;2024-01-27T12:05:50;19.40;;;3.80;;
43678;SDS011;29279;50.858;4.392;2024-01-27T12:08:17;18.83;;;3.72;;
43678;SDS011;29279;50.858;4.392;2024-01-27T12:10:43;18.15;;;4.20;;
43678;SDS011;29279;50.858;4.392;2024-01-27T12:13:08;12.43;;;3.70;;
43678;SDS011;29279;50.858;4.392;2024-01-27T12:15:34;21.00;;;4.88;;
43678;SDS011;29279;50.858;4.392;2024-01-27T12:18:00;16.67;;;4.10;;
43678;SDS011;29279;50.858;4.392;2024-01-27T12:20:26;11.00;;;3.58;;
43678;SDS011;29279;50.858;4.392;2024-01-27T12:23:13;19.05;;;4.70;;
43678;SDS011;29279;50.858;4.392;2024-01-27T12:25:38;17.58;;;4.20;;
43678;SDS011;29279;50.858;4.392;2024-01-27T12:28:08;11.07;;;2.97;;
43678;SDS011;29279;50.858;4.392;2024-01-27T12:30:34;16.20;;;4.32;;
43678;SDS011;29279;50.858;4.392;2024-01-27T12:33:00;17.63;;;4.13;;
43678;SDS011;29279;50.858;4.392;2024-01-27T12:35:26;13.65;;;3.75;;
43678;SDS011;29279;50.858;4.392;2024-01-27T12:37:54;13.07;;;3.50;;
43678;SDS011;29279;50.858;4.392;2024-01-27T12:40:20;14.23;;;3.80;;
43678;SDS011;29279;50.858;4.392;2024-01-27T12:42:46;17.15;;;4.10;;
43678;SDS011;29279;50.858;4.392;2024-01-27T12:45:13;10.45;;;3.45;;
43678;SDS011;29279;50.858;4.392;2024-01-27T12:47:39;13.70;;;3.45;;
43678;SDS011;29279;50.858;4.392;2024-01-27T12:50:05;16.55;;;3.17;;
43678;SDS011;29279;50.858;4.392;2024-01-27T12:52:31;16.13;;;3.42;;
43678;SDS011;29279;50.858;4.392;2024-01-27T12:54:57;13.13;;;3.13;;
43678;SDS011;29279;50.858;4.392;2024-01-27T12:57:23;17.67;;;3.90;;
43678;SDS011;29279;50.858;4.392;2024-01-27T12:59:49;10.02;;;3.20;;
43678;SDS011;29279;50.858;4.392;2024-01-27T13:02:14;19.60;;;3.05;;
43678;SDS011;29279;50.858;4.392;2024-01-27T13:04:40;14.18;;;3.40;;
43678;SDS011;29279;50.858;4.392;2024-01-27T13:07:06;10.70;;;2.95;;
43678;SDS011;29279;50.858;4.392;2024-01-27T13:09:35;11.27;;;3.10;;
43678;SDS011;29279;50.858;4.392;2024-01-27T13:12:02;9.52;;;3.20;;
43678;SDS011;29279;50.858;4.392;2024-01-27T13:14:28;10.40;;;3.00;;
43678;SDS011;29279;50.858;4.392;2024-01-27T13:16:54;12.57;;;3.30;;
43678;SDS011;29279;50.858;4.392;2024-01-27T13:19:21;17.77;;;4.40;;
43678;SDS011;29279;50.858;4.392;2024-01-27T13:21:47;13.10;;;4.65;;
43678;SDS011;29279;50.858;4.392;2024-01-27T13:24:13;22.13;;;4.65;;
43678;SDS011;29279;50.858;4.392;2024-01-27T13:26:38;11.43;;;3.85;;
43678;SDS011;29279;50.858;4.392;2024-01-27T13:29:04;13.73;;;3.88;;
43678;SDS011;29279;50.858;4.392;2024-01-27T13:31:30;15.68;;;4.35;;
43678;SDS011;29279;50.858;4.392;2024-01-27T13:33:56;12.77;;;3.90;;
43678;SDS011;29279;50.858;4.392;2024-01-27T13:36:22;11.27;;;3.92;;
43678;SDS011;29279;50.858;4.392;2024-01-27T13:38:48;15.55;;;4.15;;
43678;SDS011;29279;50.858;4.392;2024-01-27T13:41:14;16.30;;;3.70;;
43678;SDS011;29279;50.858;4.392;2024-01-27T13:43:40;15.40;;;3.35;;
43678;SDS011;29279;50.858;4.392;2024-01-27T13:46:06;11.02;;;3.33;;
43678;SDS011;29279;50.858;4.392;2024-01-27T13:48:32;13.95;;;3.95;;
43678;SDS011;29279;50.858;4.392;2024-01-27T13:50:58;17.45;;;3.95;;
43678;SDS011;29279;50.858;4.392;2024-01-27T13:53:24;16.67;;;4.45;;
43678;SDS011;29279;50.858;4.392;2024-01-27T13:55:49;17.90;;;4.38;;
43678;SDS011;29279;50.858;4.392;2024-01-27T13:58:16;13.13;;;3.78;;
43678;SDS011;29279;50.858;4.392;2024-01-27T14:00:42;17.17;;;4.43;;
43678;SDS011;29279;50.858;4.392;2024-01-27T14:03:08;16.38;;;3.60;;
43678;SDS011;29279;50.858;4.392;2024-01-27T14:05:35;15.43;;;4.28;;
43678;SDS011;29279;50.858;4.392;2024-01-27T14:08:01;11.98;;;3.22;;
43678;SDS011;29279;50.858;4.392;2024-01-27T14:10:29;14.65;;;4.00;;
43678;SDS011;29279;50.858;4.392;2024-01-27T14:12:54;17.67;;;3.90;;
43678;SDS011;29279;50.858;4.392;2024-01-27T14:15:20;16.02;;;3.90;;
43678;SDS011;29279;50.858;4.392;2024-01-27T14:17:46;15.25;;;3.90;;
43678;SDS011;29279;50.858;4.392;2024-01-27T14:20:12;15.43;;;4.32;;
43678;SDS011;29279;50.858;4.392;2024-01-27T14:22:38;12.25;;;3.40;;
43678;SDS011;29279;50.858;4.392;2024-01-27T14:25:04;15.20;;;3.95;;
43678;SDS011;29279;50.858;4.392;2024-01-27T14:27:31;15.95;;;3.88;;
43678;SDS011;29279;50.858;4.392;2024-01-27T14:29:56;13.13;;;3.40;;